Time;durP1;ratioP1;P1;durP2;ratioP2;P2;SDS_P1;SDS_P2;PMS_P1;PMS_P2;Temp;Humidity;BMP_temperature;BMP_pressure;BME280_temperature;BME280_humidity;BME280_pressure;Samples;Min_cycle;Max_cycle;Signal;HPM_P1;HPM_P2
2022/05/29 00:02:07;;;;;;;13.75;12.35;;;5.20;99.90;;;;;;4993233;28;20052;-74
2022/05/29 00:04:34;;;;;;;13.23;11.82;;;5.10;99.90;;;;;;4994211;28;20053;-74
2022/05/29 00:07:01;;;;;;;15.60;12.45;;;5.10;99.90;;;;;;4994613;28;20097;-75
2022/05/29 00:09:36;;;;;;;18.42;11.98;;;5.10;99.90;;;;;;4995272;28;20128;-75
2022/05/29 00:12:04;;;;;;;16.02;13.00;;;5.10;99.90;;;;;;4983263;28;20062;-75
2022/05/29 00:14:32;;;;;;;15.93;12.68;;;5.10;99.90;;;;;;4993621;28;20134;-74
2022/05/29 00:16:59;;;;;;;21.65;13.55;;;5.00;99.90;;;;;;4996462;28;20322;-74
2022/05/29 00:19:26;;;;;;;14.50;11.50;;;5.00;99.90;;;;;;4993845;28;20069;-74
2022/05/29 00:21:54;;;;;;;14.60;12.13;;;5.00;99.90;;;;;;4995394;28;20041;-74
2022/05/29 00:24:22;;;;;;;18.38;11.10;;;5.00;99.90;;;;;;4989619;28;20207;-74
2022/05/29 00:26:49;;;;;;;22.42;11.73;;;4.90;99.90;;;;;;4974076;28;20066;-74
2022/05/29 00:29:15;;;;;;;15.60;12.02;;;4.90;99.90;;;;;;4975360;28;20090;-74
2022/05/29 00:31:42;;;;;;;17.67;11.55;;;5.00;99.90;;;;;;4975274;28;20050;-74
2022/05/29 00:34:09;;;;;;;14.45;11.43;;;5.20;99.90;;;;;;4993490;28;20149;-74
2022/05/29 00:36:39;;;;;;;20.10;10.75;;;5.30;99.90;;;;;;4995643;28;20502;-74
2022/05/29 00:39:08;;;;;;;14.35;10.35;;;5.50;99.90;;;;;;4994690;28;20144;-74
2022/05/29 00:41:37;;;;;;;14.85;9.68;;;5.60;99.90;;;;;;4977699;28;20462;-74
2022/05/29 00:44:10;;;;;;;19.10;10.00;;;5.70;99.90;;;;;;4993745;28;20119;-74
2022/05/29 00:46:36;;;;;;;18.65;10.60;;;5.80;99.90;;;;;;4995055;28;20119;-74
2022/05/29 00:49:07;;;;;;;15.82;10.30;;;5.90;99.90;;;;;;4992766;28;20042;-74
2022/05/29 00:51:41;;;;;;;17.80;9.98;;;6.00;99.90;;;;;;4991712;28;20131;-73
2022/05/29 00:54:08;;;;;;;12.52;10.52;;;6.10;99.90;;;;;;4993252;28;20050;-73
2022/05/29 00:56:37;;;;;;;17.05;9.40;;;6.20;99.90;;;;;;4987794;28;20289;-74
2022/05/29 00:59:10;;;;;;;13.73;9.88;;;6.30;99.90;;;;;;4991882;28;20053;-74
2022/05/29 01:01:36;;;;;;;13.90;9.38;;;6.40;99.90;;;;;;5007931;28;20064;-74
2022/05/29 01:04:04;;;;;;;19.05;10.50;;;6.50;99.90;;;;;;4993075;28;20045;-74
2022/05/29 01:06:30;;;;;;;14.85;10.30;;;6.50;99.90;;;;;;4993637;28;20046;-74
2022/05/29 01:08:59;;;;;;;15.07;10.13;;;6.60;99.90;;;;;;4993622;28;20065;-74
2022/05/29 01:11:48;;;;;;;12.70;10.40;;;6.60;99.90;;;;;;4991355;28;20659;-74
2022/05/29 01:14:46;;;;;;;22.67;11.30;;;6.70;99.90;;;;;;4992073;28;20046;-74
2022/05/29 01:17:29;;;;;;;20.33;10.93;;;6.70;99.90;;;;;;4995249;28;20510;-74
2022/05/29 01:20:06;;;;;;;12.65;10.30;;;6.80;99.90;;;;;;4997643;28;20548;-75
2022/05/29 01:22:51;;;;;;;15.02;10.85;;;6.90;99.90;;;;;;4996019;28;20469;-74
2022/05/29 01:25:28;;;;;;;13.80;10.70;;;7.00;99.90;;;;;;4980428;28;20466;-75
2022/05/29 01:28:08;;;;;;;18.75;11.82;;;7.00;99.90;;;;;;4997851;28;20058;-75
2022/05/29 01:30:48;;;;;;;18.65;11.82;;;7.10;99.90;;;;;;4997329;28;20147;-73
2022/05/29 01:33:37;;;;;;;22.63;12.02;;;7.10;99.90;;;;;;4996647;28;20322;-74
2022/05/29 01:36:12;;;;;;;19.83;11.88;;;7.20;99.90;;;;;;4980065;28;20115;-74
2022/05/29 01:38:56;;;;;;;12.48;11.20;;;7.30;99.90;;;;;;5013519;23;20125;-76
2022/05/29 01:41:35;;;;;;;13.05;10.82;;;7.30;99.90;;;;;;4994080;28;20053;-75
2022/05/29 01:44:37;;;;;;;14.20;11.60;;;7.30;99.90;;;;;;4997301;28;20526;-77
2022/05/29 01:47:19;;;;;;;14.85;11.00;;;7.20;99.90;;;;;;4991297;28;20042;-76
2022/05/29 01:49:50;;;;;;;18.60;10.88;;;7.20;99.90;;;;;;4991212;28;20629;-76
2022/05/29 01:52:20;;;;;;;13.05;10.73;;;7.30;99.90;;;;;;5019241;28;20524;-77
2022/05/29 01:55:08;;;;;;;16.60;10.38;;;7.30;99.90;;;;;;4989130;28;20053;-76
2022/05/29 01:57:42;;;;;;;12.15;10.75;;;7.30;99.90;;;;;;4973396;28;20574;-76
2022/05/29 02:00:16;;;;;;;18.15;10.40;;;7.30;99.90;;;;;;4988578;28;20061;-76
2022/05/29 02:02:52;;;;;;;15.20;10.50;;;7.30;99.90;;;;;;4990392;28;20053;-76
2022/05/29 02:05:25;;;;;;;19.58;10.98;;;7.30;99.90;;;;;;4989252;28;20042;-74
2022/05/29 02:08:00;;;;;;;13.13;10.55;;;7.40;99.90;;;;;;4990112;28;20050;-75
2022/05/29 02:10:46;;;;;;;13.95;10.10;;;7.40;99.90;;;;;;4988242;28;20046;-76
2022/05/29 02:13:33;;;;;;;19.52;11.02;;;7.50;99.90;;;;;;4989518;28;20046;-74
2022/05/29 02:16:09;;;;;;;20.45;11.25;;;7.40;99.90;;;;;;4988478;28;20149;-74
2022/05/29 02:19:01;;;;;;;17.02;11.05;;;7.50;99.90;;;;;;4994428;28;20046;-75
2022/05/29 02:21:43;;;;;;;17.00;9.80;;;7.50;99.90;;;;;;5002785;28;20049;-75
2022/05/29 02:24:13;;;;;;;20.98;10.85;;;7.50;99.90;;;;;;4988605;28;20742;-75
2022/05/29 02:26:53;;;;;;;17.65;10.88;;;7.60;99.90;;;;;;5001680;28;20047;-75
2022/05/29 02:29:20;;;;;;;19.92;9.98;;;7.60;99.90;;;;;;4969374;28;20050;-75
2022/05/29 02:32:00;;;;;;;13.70;10.05;;;7.50;99.90;;;;;;4970245;28;20042;-75
2022/05/29 02:34:35;;;;;;;19.27;9.55;;;7.60;99.90;;;;;;4969062;28;20054;-77
2022/05/29 02:37:29;;;;;;;19.10;10.50;;;7.60;99.90;;;;;;4979435;28;20046;-78
2022/05/29 02:40:15;;;;;;;13.40;10.23;;;7.60;99.90;;;;;;4972608;28;20059;-78
2022/05/29 02:43:06;;;;;;;22.23;9.90;;;7.60;99.90;;;;;;5004443;28;20054;-77
2022/05/29 02:45:56;;;;;;;17.58;10.75;;;7.60;99.90;;;;;;4987810;28;20530;-76
2022/05/29 02:48:44;;;;;;;14.85;9.50;;;7.60;99.90;;;;;;5011281;28;20050;-75
2022/05/29 02:51:56;;;;;;;14.82;9.82;;;7.70;99.90;;;;;;4997840;28;20137;-76
2022/05/29 02:54:26;;;;;;;19.15;10.40;;;7.60;99.90;;;;;;4992727;28;20065;-76
2022/05/29 02:56:54;;;;;;;18.95;9.55;;;7.60;99.90;;;;;;4991951;28;20138;-76
2022/05/29 02:59:28;;;;;;;17.05;8.88;;;7.60;99.90;;;;;;4993002;28;20057;-76
2022/05/29 03:02:05;;;;;;;15.30;9.53;;;7.60;99.90;;;;;;5008209;28;20046;-75
2022/05/29 03:05:06;;;;;;;21.25;9.70;;;7.60;99.90;;;;;;4989361;28;20556;-75
2022/05/29 03:07:48;;;;;;;20.55;9.10;;;7.60;99.90;;;;;;4980491;28;20078;-76
2022/05/29 03:10:29;;;;;;;17.90;9.52;;;7.60;99.90;;;;;;4995363;28;20656;-75
2022/05/29 03:13:08;;;;;;;19.98;9.68;;;7.60;99.90;;;;;;4996136;28;20058;-75
2022/05/29 03:15:50;;;;;;;19.33;9.60;;;7.60;99.90;;;;;;4985460;28;20059;-75
2022/05/29 03:18:23;;;;;;;25.80;10.90;;;7.60;99.90;;;;;;4989639;28;20292;-75
2022/05/29 03:21:21;;;;;;;25.70;10.00;;;7.60;99.90;;;;;;5021617;28;20294;-75
2022/05/29 03:23:52;;;;;;;21.30;10.10;;;7.60;99.90;;;;;;5004393;28;20128;-75
2022/05/29 03:26:41;;;;;;;20.67;10.32;;;7.60;99.90;;;;;;4995090;28;20064;-76
2022/05/29 03:29:28;;;;;;;23.08;10.30;;;7.60;99.90;;;;;;4994693;28;20058;-75
2022/05/29 03:31:57;;;;;;;17.20;9.73;;;7.60;99.90;;;;;;4991571;28;20069;-75
2022/05/29 03:34:26;;;;;;;19.40;10.63;;;7.50;99.90;;;;;;4992444;28;20108;-75
2022/05/29 03:36:53;;;;;;;21.48;8.85;;;7.50;99.90;;;;;;4974771;28;20053;-75
2022/05/29 03:39:20;;;;;;;18.08;9.98;;;7.50;99.90;;;;;;5006939;28;20137;-75
2022/05/29 03:41:51;;;;;;;14.18;9.45;;;7.50;99.90;;;;;;4990063;28;20054;-75
2022/05/29 03:44:21;;;;;;;15.18;8.82;;;7.50;99.90;;;;;;4982852;28;20052;-76
2022/05/29 03:46:48;;;;;;;23.90;11.90;;;7.60;99.90;;;;;;5004275;28;20050;-75
2022/05/29 03:49:18;;;;;;;18.95;11.13;;;7.60;99.90;;;;;;4995689;28;20046;-75
2022/05/29 03:51:45;;;;;;;23.40;12.27;;;7.60;99.90;;;;;;4975188;28;20744;-76
2022/05/29 03:54:13;;;;;;;19.95;11.25;;;7.60;99.90;;;;;;5004174;28;20110;-75
2022/05/29 03:56:40;;;;;;;24.02;11.70;;;7.60;99.90;;;;;;4986835;28;20129;-75
2022/05/29 03:59:07;;;;;;;15.57;10.77;;;7.60;99.90;;;;;;4983369;28;20058;-75
2022/05/29 04:01:35;;;;;;;15.05;11.43;;;7.60;99.90;;;;;;4982549;28;20062;-75
2022/05/29 04:04:03;;;;;;;17.92;12.63;;;7.60;99.90;;;;;;4999136;28;20146;-75
2022/05/29 04:06:35;;;;;;;23.80;12.40;;;7.60;99.90;;;;;;4989315;28;20055;-75
2022/05/29 04:12:05;;;;;;;23.95;12.52;;;7.70;99.90;;;;;;4964393;28;20061;-75
2022/05/29 04:14:43;;;;;;;17.92;12.40;;;7.80;99.90;;;;;;4999722;28;20067;-75
2022/05/29 04:17:13;;;;;;;21.92;11.65;;;7.80;99.90;;;;;;4992789;28;20404;-75
2022/05/29 04:19:41;;;;;;;17.38;11.68;;;7.80;99.90;;;;;;4976717;28;20124;-76
2022/05/29 04:22:22;;;;;;;19.98;12.18;;;7.80;99.90;;;;;;4984873;28;20050;-76
2022/05/29 04:24:49;;;;;;;16.08;11.05;;;7.70;99.90;;;;;;4984659;28;20069;-77
2022/05/29 04:27:16;;;;;;;21.75;11.70;;;7.70;99.90;;;;;;4967026;28;20062;-77
2022/05/29 04:29:43;;;;;;;30.05;11.93;;;7.70;99.90;;;;;;4985263;28;20058;-79
2022/05/29 04:34:57;;;;;;;16.25;11.18;;;7.70;99.90;;;;;;4999518;28;20515;-78
2022/05/29 04:37:27;;;;;;;18.60;12.10;;;7.70;99.90;;;;;;4967387;28;20062;-78
2022/05/29 04:39:54;;;;;;;20.40;10.88;;;7.70;99.90;;;;;;4998937;28;20086;-77
2022/05/29 04:42:21;;;;;;;18.23;12.55;;;7.70;99.90;;;;;;4982336;28;20046;-77
2022/05/29 04:44:48;;;;;;;26.17;13.18;;;7.60;99.90;;;;;;4983957;28;20049;-77
2022/05/29 04:47:16;;;;;;;21.38;11.73;;;7.50;99.90;;;;;;4984065;28;20454;-77
2022/05/29 04:49:44;;;;;;;16.88;12.60;;;7.40;99.90;;;;;;4992156;28;20492;-78
2022/05/29 04:52:11;;;;;;;18.58;11.50;;;7.50;99.90;;;;;;4998196;28;20044;-76
2022/05/29 04:54:39;;;;;;;17.38;12.40;;;7.60;99.90;;;;;;4986280;28;20090;-80
2022/05/29 04:57:08;;;;;;;16.55;10.85;;;7.70;99.90;;;;;;4983507;28;20134;-79
2022/05/29 04:59:36;;;;;;;19.90;12.23;;;7.80;99.90;;;;;;4983582;28;20750;-77
2022/05/29 05:02:03;;;;;;;18.27;11.90;;;7.80;99.90;;;;;;4982447;28;20077;-78
2022/05/29 05:04:31;;;;;;;18.20;11.32;;;7.60;99.90;;;;;;4982665;28;20566;-77
2022/05/29 05:06:59;;;;;;;23.45;11.30;;;7.70;99.90;;;;;;4982688;28;20060;-78
2022/05/29 05:09:27;;;;;;;21.13;11.13;;;7.80;99.90;;;;;;4967439;28;20042;-78
2022/05/29 05:11:54;;;;;;;20.23;10.68;;;7.70;99.90;;;;;;4994665;28;20125;-78
2022/05/29 05:14:23;;;;;;;22.05;11.32;;;7.80;99.90;;;;;;4992101;28;20042;-77
2022/05/29 05:16:53;;;;;;;17.65;12.68;;;7.80;99.90;;;;;;4999091;28;20578;-77
2022/05/29 05:19:21;;;;;;;21.42;13.10;;;7.80;99.90;;;;;;4991595;28;20514;-77
2022/05/29 05:21:48;;;;;;;19.90;12.30;;;7.70;99.90;;;;;;5002608;28;20133;-77
2022/05/29 05:24:16;;;;;;;19.15;12.85;;;7.80;99.90;;;;;;4973221;28;20038;-77
2022/05/29 05:26:43;;;;;;;26.20;13.30;;;7.90;99.90;;;;;;4983458;28;20129;-77
2022/05/29 05:29:10;;;;;;;21.55;12.57;;;7.90;99.90;;;;;;4999698;28;20407;-76
2022/05/29 05:31:37;;;;;;;22.92;13.65;;;7.90;99.90;;;;;;4965891;28;20617;-77
2022/05/29 05:34:07;;;;;;;20.80;13.20;;;8.00;99.90;;;;;;4971495;28;20074;-77
2022/05/29 05:36:34;;;;;;;22.58;13.18;;;8.00;99.90;;;;;;4983012;28;20418;-76
2022/05/29 05:39:01;;;;;;;26.63;15.73;;;8.10;99.90;;;;;;4983202;28;20046;-77
2022/05/29 05:41:28;;;;;;;22.15;14.95;;;8.20;99.90;;;;;;4979273;28;20050;-77
2022/05/29 05:43:55;;;;;;;26.90;15.15;;;8.20;99.90;;;;;;4991970;28;20069;-79
2022/05/29 05:46:22;;;;;;;29.00;15.05;;;8.20;99.90;;;;;;4985997;28;20039;-77
2022/05/29 05:48:49;;;;;;;28.80;15.27;;;8.20;99.90;;;;;;5003780;28;20064;-78
2022/05/29 05:51:16;;;;;;;30.05;15.43;;;8.10;99.90;;;;;;4994587;28;20249;-78
2022/05/29 05:53:43;;;;;;;34.58;16.95;;;8.20;99.90;;;;;;5003176;23;20628;-72
2022/05/29 05:56:13;;;;;;;23.63;14.73;;;8.30;99.90;;;;;;4988626;28;20085;-73
2022/05/29 05:58:42;;;;;;;31.00;16.65;;;8.40;99.90;;;;;;4976084;28;20439;-74
2022/05/29 06:01:13;;;;;;;25.20;16.25;;;8.40;99.90;;;;;;4975111;28;20659;-74
2022/05/29 06:03:40;;;;;;;26.92;15.52;;;8.30;99.90;;;;;;4974525;28;20054;-71
2022/05/29 06:06:07;;;;;;;29.92;16.85;;;8.10;99.90;;;;;;4975160;28;20435;-74
2022/05/29 06:08:34;;;;;;;25.42;15.80;;;8.10;99.90;;;;;;4976128;28;20061;-71
2022/05/29 06:11:04;;;;;;;33.75;16.63;;;8.20;99.90;;;;;;4978989;28;20318;-73
2022/05/29 06:13:31;;;;;;;27.65;16.55;;;8.20;99.90;;;;;;4977308;28;20038;-72
2022/05/29 06:16:02;;;;;;;28.20;16.83;;;8.10;99.90;;;;;;4962148;28;20552;-73
2022/05/29 06:18:30;;;;;;;28.00;15.48;;;8.20;99.90;;;;;;4977092;28;20050;-72
2022/05/29 06:21:00;;;;;;;27.55;14.73;;;8.20;99.90;;;;;;4976479;28;20042;-71
2022/05/29 06:23:28;;;;;;;22.73;14.77;;;8.30;99.90;;;;;;4975975;28;20054;-73
2022/05/29 06:25:55;;;;;;;23.05;15.13;;;8.20;99.90;;;;;;4976466;28;21123;-75
2022/05/29 06:28:22;;;;;;;25.55;14.90;;;8.10;99.90;;;;;;4978613;28;20420;-73
2022/05/29 06:30:49;;;;;;;30.05;15.90;;;8.20;99.90;;;;;;4978831;28;20042;-71
2022/05/29 06:33:16;;;;;;;24.58;15.15;;;8.30;99.90;;;;;;4974976;28;20069;-71
2022/05/29 06:35:42;;;;;;;27.00;14.73;;;8.20;99.90;;;;;;4976126;28;20042;-73
2022/05/29 06:38:09;;;;;;;26.00;16.63;;;8.20;99.90;;;;;;4975899;28;20046;-74
2022/05/29 06:40:39;;;;;;;31.40;16.05;;;8.40;99.90;;;;;;4992701;28;20042;-74
2022/05/29 06:43:06;;;;;;;19.85;13.75;;;8.40;99.90;;;;;;4993312;28;20565;-72
2022/05/29 06:45:33;;;;;;;23.40;15.10;;;8.50;99.90;;;;;;4974928;28;20058;-72
2022/05/29 06:48:00;;;;;;;25.40;14.23;;;8.50;99.90;;;;;;4992939;28;20046;-71
2022/05/29 06:50:27;;;;;;;24.08;15.30;;;8.50;99.90;;;;;;4986454;28;20057;-73
2022/05/29 06:52:54;;;;;;;31.02;16.35;;;8.50;99.90;;;;;;4974861;28;20061;-73
2022/05/29 06:55:21;;;;;;;27.30;16.58;;;8.50;99.90;;;;;;4991868;28;20050;-73
2022/05/29 06:57:48;;;;;;;31.35;15.80;;;8.50;99.90;;;;;;4977158;28;20475;-71
2022/05/29 07:08:36;;;;;;;29.48;17.10;;;8.30;99.90;;;;;;4980084;28;20441;-72
2022/05/29 07:11:08;;;;;;;27.85;16.60;;;8.30;99.90;;;;;;4977464;28;20046;-71
2022/05/29 07:13:36;;;;;;;32.15;16.35;;;8.40;99.90;;;;;;4978596;28;20046;-69
2022/05/29 07:16:03;;;;;;;40.28;17.40;;;8.50;99.90;;;;;;4976358;28;20651;-73
2022/05/29 07:18:32;;;;;;;27.10;17.17;;;8.70;99.90;;;;;;4977186;28;20100;-72
2022/05/29 07:21:04;;;;;;;28.52;14.57;;;8.80;99.90;;;;;;4975544;28;20053;-74
2022/05/29 07:23:31;;;;;;;25.23;15.50;;;8.80;99.90;;;;;;4977578;28;20042;-72
2022/05/29 07:25:58;;;;;;;34.22;17.92;;;8.80;99.90;;;;;;4976177;28;20039;-72
2022/05/29 07:28:25;;;;;;;28.70;16.67;;;8.80;99.90;;;;;;4979243;28;20450;-74
2022/05/29 07:30:54;;;;;;;27.85;17.25;;;8.90;99.90;;;;;;4976863;28;20549;-74
2022/05/29 07:33:26;;;;;;;26.00;16.50;;;9.00;99.90;;;;;;4977191;28;20188;-73
2022/05/29 07:35:53;;;;;;;24.40;17.55;;;9.30;99.90;;;;;;4975312;28;20046;-72
2022/05/29 07:38:20;;;;;;;24.05;17.65;;;9.30;99.90;;;;;;4993687;23;20054;-77
2022/05/29 07:40:46;;;;;;;29.00;17.70;;;9.40;99.90;;;;;;4977384;28;20058;-77
2022/05/29 07:43:19;;;;;;;25.70;17.02;;;9.50;99.90;;;;;;4938441;28;20094;-76
2022/05/29 07:45:52;;;;;;;29.70;18.38;;;9.50;99.90;;;;;;4961024;28;20043;-77
2022/05/29 07:48:21;;;;;;;37.03;19.35;;;9.50;99.90;;;;;;4945883;29;20778;-77
2022/05/29 07:50:48;;;;;;;30.77;18.70;;;9.30;99.90;;;;;;4945537;29;20047;-76
2022/05/29 07:53:15;;;;;;;23.52;18.27;;;9.30;99.90;;;;;;4961531;28;20321;-76
2022/05/29 07:55:43;;;;;;;20.13;17.95;;;9.40;99.90;;;;;;4945707;29;20047;-76
2022/05/29 07:58:12;;;;;;;27.95;19.10;;;9.50;99.90;;;;;;4945607;29;20094;-76
2022/05/29 08:00:40;;;;;;;20.52;18.23;;;9.60;99.90;;;;;;4945338;28;20041;-77
2022/05/29 08:03:07;;;;;;;34.28;18.90;;;9.80;99.90;;;;;;4945831;29;20043;-77
2022/05/29 08:05:37;;;;;;;22.15;18.80;;;9.90;99.90;;;;;;4945723;28;20050;-76
2022/05/29 08:08:08;;;;;;;22.48;20.05;;;10.00;99.90;;;;;;4946123;29;20058;-76
2022/05/29 08:10:37;;;;;;;27.25;19.77;;;10.00;99.90;;;;;;4945603;28;20051;-77
2022/05/29 08:13:04;;;;;;;26.30;20.67;;;10.00;99.90;;;;;;4932759;29;20079;-76
2022/05/29 08:15:31;;;;;;;27.02;18.70;;;9.80;99.90;;;;;;4949956;28;20043;-77
2022/05/29 08:17:58;;;;;;;20.08;17.83;;;9.90;99.90;;;;;;4961822;28;20082;-77
2022/05/29 08:20:27;;;;;;;24.08;19.27;;;9.70;99.90;;;;;;4960794;28;20147;-77
2022/05/29 08:22:53;;;;;;;24.17;17.80;;;9.50;99.90;;;;;;4945153;29;20082;-77
2022/05/29 08:30:54;;;;;;;27.05;17.00;;;9.40;99.90;;;;;;4939984;28;19930;-77
2022/05/29 08:33:23;;;;;;;23.30;16.25;;;9.40;99.90;;;;;;4925529;29;20114;-77
2022/05/29 08:36:04;;;;;;;17.85;16.05;;;9.20;99.90;;;;;;4926018;29;20632;-78
2022/05/29 08:38:32;;;;;;;31.58;17.27;;;9.20;99.90;;;;;;4930695;29;20046;-77
2022/05/29 08:41:28;;;;;;;18.65;16.10;;;9.20;99.90;;;;;;4960467;28;20058;-78
2022/05/29 08:44:03;;;;;;;23.90;16.17;;;9.10;99.90;;;;;;4952453;28;20028;-77
2022/05/29 08:46:44;;;;;;;24.92;18.05;;;9.10;99.90;;;;;;4978864;28;20059;-78
2022/05/29 08:49:17;;;;;;;23.92;17.58;;;9.20;99.90;;;;;;4963878;28;20055;-78
2022/05/29 08:51:53;;;;;;;20.90;15.55;;;9.30;99.90;;;;;;4976337;28;20080;-78
2022/05/29 08:54:30;;;;;;;26.20;17.23;;;9.40;99.90;;;;;;4961477;29;20051;-78
2022/05/29 08:57:02;;;;;;;26.02;18.58;;;9.40;99.90;;;;;;4972151;28;20074;-82
2022/05/29 08:59:50;;;;;;;30.45;18.88;;;9.40;99.90;;;;;;4970034;28;20172;-81
2022/05/29 09:02:17;;;;;;;32.75;17.35;;;9.30;99.90;;;;;;4971146;28;20086;-81
2022/05/29 09:04:50;;;;;;;27.67;16.48;;;9.40;99.90;;;;;;4970860;28;20074;-81
2022/05/29 09:07:19;;;;;;;25.52;15.55;;;9.40;99.90;;;;;;4968935;28;20293;-80
2022/05/29 09:09:56;;;;;;;24.10;14.32;;;9.50;99.90;;;;;;4967858;28;20031;-81
2022/05/29 09:12:39;;;;;;;27.60;14.00;;;9.60;99.90;;;;;;4965836;28;20114;-81
2022/05/29 09:15:14;;;;;;;19.88;13.93;;;9.80;99.90;;;;;;4965143;28;20071;-80
2022/05/29 09:17:48;;;;;;;22.65;14.63;;;9.80;99.90;;;;;;4966263;28;20098;-81
2022/05/29 09:20:49;;;;;;;21.90;14.97;;;9.80;99.90;;;;;;4967674;28;20061;-81
2022/05/29 09:23:30;;;;;;;18.17;11.90;;;9.80;99.90;;;;;;4975188;28;20468;-79
2022/05/29 09:25:57;;;;;;;18.77;12.13;;;9.60;99.90;;;;;;4948949;28;20059;-81
2022/05/29 09:28:39;;;;;;;16.42;11.80;;;9.50;99.90;;;;;;4948181;28;20443;-80
2022/05/29 09:31:07;;;;;;;19.60;10.45;;;9.50;99.90;;;;;;4951355;28;20048;-80
2022/05/29 09:33:35;;;;;;;19.70;11.25;;;9.40;99.90;;;;;;4955162;28;20087;-80
2022/05/29 09:36:40;;;;;;;13.75;10.02;;;9.40;99.90;;;;;;4953094;28;20051;-79
2022/05/29 09:39:21;;;;;;;21.10;13.73;;;9.30;99.90;;;;;;4929662;29;20047;-80
2022/05/29 09:42:03;;;;;;;21.00;12.57;;;9.40;99.90;;;;;;4949584;28;20110;-81
2022/05/29 09:44:30;;;;;;;22.48;13.65;;;9.40;99.90;;;;;;4953691;28;20101;-81
2022/05/29 09:49:40;;;;;;;21.13;12.40;;;9.50;99.90;;;;;;4970342;28;20047;-79
2022/05/29 09:50:03;;;;;;;17.60;11.90;;;9.60;99.90;;;;;;4969190;28;20134;-79
2022/05/29 09:52:35;;;;;;;20.35;13.07;;;9.70;99.90;;;;;;4958666;28;20123;-79
2022/05/29 09:55:05;;;;;;;22.27;12.68;;;9.90;99.90;;;;;;4955155;28;20065;-80
2022/05/29 09:57:49;;;;;;;16.70;11.43;;;10.20;99.90;;;;;;4966804;28;20051;-80
2022/05/29 10:00:39;;;;;;;17.38;12.30;;;10.10;99.90;;;;;;4978422;28;20131;-79
2022/05/29 10:03:10;;;;;;;12.18;9.68;;;10.30;99.90;;;;;;4937070;29;20055;-78
2022/05/29 10:05:39;;;;;;;15.77;9.75;;;10.30;99.90;;;;;;4967915;28;20059;-79
2022/05/29 10:08:36;;;;;;;28.38;9.90;;;10.50;99.90;;;;;;4969092;28;20121;-80
2022/05/29 10:11:19;;;;;;;12.50;8.63;;;10.70;99.90;;;;;;4936676;29;20159;-80
2022/05/29 10:13:49;;;;;;;25.65;12.13;;;11.10;99.90;;;;;;4961927;28;20183;-79
2022/05/29 10:16:36;;;;;;;14.50;9.15;;;11.40;99.90;;;;;;4946713;28;20047;-79
2022/05/29 10:19:09;;;;;;;11.82;8.90;;;11.40;99.90;;;;;;4953062;28;20070;-79
2022/05/29 10:21:43;;;;;;;17.08;9.55;;;11.50;99.90;;;;;;4936976;28;20087;-79
2022/05/29 10:24:16;;;;;;;11.18;10.23;;;11.80;99.90;;;;;;4953119;29;20424;-79
2022/05/29 10:26:48;;;;;;;11.05;10.00;;;11.90;99.90;;;;;;4954516;28;20051;-79
2022/05/29 10:29:31;;;;;;;15.90;14.25;;;12.10;99.90;;;;;;4956236;29;20051;-80
2022/05/29 10:32:02;;;;;;;14.90;13.70;;;12.30;99.90;;;;;;4955731;28;20540;-77
2022/05/29 10:34:32;;;;;;;15.55;14.45;;;12.30;99.90;;;;;;4958064;28;20059;-79
2022/05/29 10:37:01;;;;;;;14.02;12.88;;;12.30;99.90;;;;;;4960756;28;20062;-79
2022/05/29 10:39:31;;;;;;;14.98;13.43;;;12.50;99.90;;;;;;4954828;28;20063;-77
2022/05/29 10:42:03;;;;;;;14.77;13.60;;;12.50;99.90;;;;;;4950046;28;20097;-79
2022/05/29 10:44:41;;;;;;;16.33;15.07;;;12.30;99.90;;;;;;4949444;29;20035;-79
2022/05/29 10:47:16;;;;;;;15.10;13.73;;;12.00;99.90;;;;;;4930913;29;20055;-79
2022/05/29 10:50:08;;;;;;;13.50;12.68;;;11.60;99.90;;;;;;4968929;28;20047;-78
2022/05/29 10:53:01;;;;;;;14.95;13.85;;;11.40;99.90;;;;;;4935774;29;20047;-79
2022/05/29 10:55:46;;;;;;;12.07;10.88;;;11.00;99.90;;;;;;4965548;28;20087;-79
2022/05/29 10:58:25;;;;;;;;;;;10.40;99.90;;;;;;4951715;29;20504;-80
2022/05/29 11:03:17;;;;;;;12.02;7.88;;;9.90;99.90;;;;;;4935414;28;19926;-80
2022/05/29 11:04:34;;;;;;;8.38;7.00;;;9.60;99.90;;;;;;4967385;28;20109;-79
2022/05/29 11:07:04;;;;;;;7.07;6.35;;;9.50;99.90;;;;;;4962635;28;20489;-79
2022/05/29 11:09:40;;;;;;;9.13;6.32;;;9.30;99.90;;;;;;4932340;29;20056;-79
2022/05/29 11:12:56;;;;;;;6.38;5.75;;;9.20;99.90;;;;;;4935139;29;20051;-79
2022/05/29 11:15:34;;;;;;;9.73;6.20;;;9.10;99.90;;;;;;4961818;28;20043;-81
2022/05/29 11:18:28;;;;;;;10.48;5.60;;;9.30;99.90;;;;;;4951902;28;20043;-79
2022/05/29 11:21:16;;;;;;;8.18;6.78;;;9.30;99.90;;;;;;4948276;28;20043;-80
2022/05/29 11:23:55;;;;;;;11.57;6.63;;;9.40;99.90;;;;;;4951874;28;20051;-79
2022/05/29 11:26:45;;;;;;;12.73;6.82;;;9.70;99.90;;;;;;4950724;28;20055;-80
2022/05/29 11:29:50;;;;;;;11.52;8.23;;;10.00;99.90;;;;;;4951708;28;20075;-79
2022/05/29 11:32:46;;;;;;;13.40;8.88;;;10.30;99.90;;;;;;4901261;29;20055;-79
2022/05/29 11:35:35;;;;;;;9.40;8.05;;;10.40;99.90;;;;;;4950242;28;20074;-80
2022/05/29 11:38:27;;;;;;;13.25;10.00;;;10.70;99.90;;;;;;4965761;28;20226;-80
2022/05/29 11:41:04;;;;;;;12.38;7.47;;;11.00;99.90;;;;;;4947298;28;20078;-80
2022/05/29 11:43:41;;;;;;;14.10;9.63;;;11.30;99.90;;;;;;4952000;28;20551;-79
2022/05/29 11:52:06;;;;;;;14.18;12.70;;;11.30;99.90;;;;;;4942722;28;20500;-80
2022/05/29 11:54:54;;;;;;;11.55;10.43;;;11.30;99.90;;;;;;4970339;23;20050;-75
2022/05/29 11:57:39;;;;;;;12.50;11.40;;;11.40;99.90;;;;;;4965912;28;20050;-75
2022/05/29 12:00:42;;;;;;;15.27;13.77;;;11.40;99.90;;;;;;4967611;28;20129;-75
2022/05/29 12:03:36;;;;;;;15.57;14.50;;;11.20;99.90;;;;;;4968015;28;20048;-75
2022/05/29 12:06:20;;;;;;;14.52;13.60;;;10.90;99.90;;;;;;4965735;28;20525;-76
2022/05/29 12:08:59;;;;;;;14.57;12.30;;;10.80;99.90;;;;;;4967202;28;20109;-76
2022/05/29 12:11:30;;;;;;;12.10;11.10;;;10.80;99.90;;;;;;4966416;28;20400;-77
2022/05/29 12:14:07;;;;;;;11.88;10.68;;;11.00;99.90;;;;;;4966837;28;20492;-74
2022/05/29 12:16:37;;;;;;;12.90;10.18;;;11.00;99.90;;;;;;4964952;28;20038;-76
2022/05/29 12:19:17;;;;;;;14.32;12.90;;;11.00;99.90;;;;;;4971913;28;20045;-75
2022/05/29 12:21:55;;;;;;;34.58;14.35;;;10.90;99.90;;;;;;4968487;28;20070;-74
2022/05/29 12:24:28;;;;;;;15.10;10.43;;;11.30;99.90;;;;;;4966748;28;20061;-75
2022/05/29 12:27:03;;;;;;;16.33;11.73;;;11.60;99.90;;;;;;4966935;28;20117;-75
2022/05/29 12:29:41;;;;;;;12.35;11.05;;;11.60;99.90;;;;;;4967230;28;20064;-74
2022/05/29 12:32:34;;;;;;;14.00;12.57;;;11.60;99.90;;;;;;4950206;28;20427;-75
2022/05/29 12:35:13;;;;;;;17.15;14.52;;;11.60;99.90;;;;;;4965619;28;20061;-76
2022/05/29 12:38:08;;;;;;;15.63;11.52;;;11.60;99.90;;;;;;4966405;28;20046;-75
2022/05/29 12:40:51;;;;;;;16.77;11.80;;;11.80;99.90;;;;;;4946443;28;20238;-74
2022/05/29 12:43:56;;;;;;;11.63;10.50;;;12.10;99.90;;;;;;4956735;28;20054;-75
2022/05/29 12:47:01;;;;;;;16.30;14.63;;;12.30;99.90;;;;;;4965894;28;20048;-75
2022/05/29 12:49:51;;;;;;;13.13;12.13;;;12.30;99.90;;;;;;4973641;28;20124;-76
2022/05/29 12:52:22;;;;;;;16.58;14.90;;;12.50;99.90;;;;;;4978886;28;20041;-76
2022/05/29 12:55:24;;;;;;;14.48;13.25;;;12.50;99.90;;;;;;4973272;28;20503;-75
2022/05/29 12:58:01;;;;;;;15.40;13.90;;;12.60;99.90;;;;;;4949275;28;20100;-76
2022/05/29 13:00:43;;;;;;;16.45;14.98;;;12.70;99.90;;;;;;4966586;28;20096;-76
2022/05/29 13:03:28;;;;;;;17.75;16.13;;;12.80;99.90;;;;;;4983694;28;20506;-76
2022/05/29 13:06:29;;;;;;;20.00;18.80;;;12.60;99.90;;;;;;4965302;28;20065;-75
2022/05/29 13:09:40;;;;;;;22.20;20.70;;;12.30;99.90;;;;;;4902857;28;20065;-75
2022/05/29 13:12:18;;;;;;;21.55;19.83;;;12.10;99.90;;;;;;4949726;28;20054;-77
2022/05/29 13:14:50;;;;;;;18.45;17.20;;;11.70;99.90;;;;;;4983367;28;20104;-76
2022/05/29 13:17:29;;;;;;;15.60;14.50;;;11.40;99.90;;;;;;4965145;28;20570;-76
2022/05/29 13:20:18;;;;;;;14.02;12.98;;;11.20;99.90;;;;;;4962471;28;20061;-75
2022/05/29 13:22:45;;;;;;;11.07;10.18;;;10.60;99.90;;;;;;4951180;28;20054;-74
2022/05/29 13:25:15;;;;;;;11.35;9.13;;;10.30;99.90;;;;;;4941669;28;20551;-75
2022/05/29 13:27:42;;;;;;;7.32;6.63;;;10.10;99.90;;;;;;4937186;28;20057;-75
2022/05/29 13:30:33;;;;;;;7.57;6.55;;;10.00;99.90;;;;;;4953062;28;20086;-76
2022/05/29 13:33:25;;;;;;;6.80;6.15;;;9.80;99.90;;;;;;4950813;28;20058;-75
2022/05/29 13:36:00;;;;;;;9.23;5.70;;;9.70;99.90;;;;;;4952375;28;20046;-75
2022/05/29 13:38:46;;;;;;;7.05;5.85;;;9.60;99.90;;;;;;4960061;28;20499;-75
2022/05/29 13:41:52;;;;;;;8.00;5.60;;;9.40;99.90;;;;;;4988582;28;20074;-77
2022/05/29 13:44:31;;;;;;;5.50;4.88;;;9.50;99.90;;;;;;4971659;28;20512;-76
2022/05/29 13:47:24;;;;;;;6.85;4.57;;;9.50;99.90;;;;;;4968878;28;20136;-77